Milwaukee, Wisconsin
Traffic Map
Current Weather Conditions
Milwaukee, Wisconsin
Clear
Clear
59°
Feels Like: 59°
Wind Chill: 59° Ceiling: Unl
Heat Index: 59° Visibility: 10mi
Dew Point: 38° Wind: 8mph
Humidity: 46% Direction: 250° (WSW)
Pressure: 29.88in Gusts: 0mph
Raw Report DataKMKE 270252Z 25007KT 10SM CLR 15/03 A2988 RMK AO2 SLP116 T01500033 50002
Traffic Incident Summary
Active as of:
Severity:
Category:
InformationThere was an issue retrieving the traffic information for this location. Please try a different location or try again shortly.
Advertisements
Track Severe Weather on mobile